Time;durP1;ratioP1;P1;durP2;ratioP2;P2;SDS_P1;SDS_P2;PMS_P1;PMS_P2;Temp;Humidity;BMP_temperature;BMP_pressure;BME280_temperature;BME280_humidity;BME280_pressure;Samples;Min_cycle;Max_cycle;Signal;HPM_P1;HPM_P2
2023/05/29 00:01:08;;;;;;;4.90;2.30;;;15.40;1.00;;;;;;5021236;28;20560;-82
2023/05/29 00:03:34;;;;;;;4.70;2.40;;;15.40;1.00;;;;;;5020021;28;20482;-81
2023/05/29 00:06:02;;;;;;;3.87;2.20;;;15.30;4.60;;;;;;5020872;28;20450;-83
2023/05/29 00:08:29;;;;;;;3.70;2.03;;;15.30;1.00;;;;;;5021375;28;20506;-82
2023/05/29 00:10:58;;;;;;;5.20;2.60;;;15.30;60.80;;;;;;5021958;28;20544;-81
2023/05/29 00:13:24;;;;;;;4.90;2.47;;;15.30;99.90;;;;;;5020291;28;20454;-81
2023/05/29 00:15:52;;;;;;;4.60;2.60;;;15.20;99.90;;;;;;5021702;28;20501;-82
2023/05/29 00:18:18;;;;;;;4.70;2.00;;;15.10;1.00;;;;;;5022440;28;20529;-82
2023/05/29 00:20:45;;;;;;;5.90;2.60;;;15.10;1.00;;;;;;5020762;28;20466;-81
2023/05/29 00:23:12;;;;;;;7.30;3.20;;;15.10;1.00;;;;;;5019469;28;20577;-80
2023/05/29 00:25:40;;;;;;;4.47;2.33;;;15.00;1.00;;;;;;5020897;28;20467;-81
2023/05/29 00:28:09;;;;;;;4.70;2.20;;;15.00;1.00;;;;;;5019861;28;20539;-80
2023/05/29 00:30:36;;;;;;;5.90;2.87;;;15.00;1.00;;;;;;5018914;28;20477;-80
2023/05/29 00:33:02;;;;;;;4.90;2.50;;;14.90;99.90;;;;;;5018427;28;20906;-82
2023/05/29 00:35:29;;;;;;;4.93;2.50;;;14.90;99.90;;;;;;5021372;28;20449;-80
2023/05/29 00:37:56;;;;;;;4.83;2.50;;;14.90;49.20;;;;;;5020250;28;21011;-80
2023/05/29 00:40:23;;;;;;;6.47;2.47;;;14.90;1.00;;;;;;5019928;28;20495;-80
2023/05/29 00:42:50;;;;;;;7.70;2.70;;;14.80;1.00;;;;;;5019522;28;20576;-80
2023/05/29 00:45:18;;;;;;;4.90;2.20;;;14.80;1.00;;;;;;5021853;28;20463;-81
2023/05/29 00:47:46;;;;;;;5.03;2.83;;;14.70;1.00;;;;;;5023640;28;20991;-81
2023/05/29 00:50:14;;;;;;;5.10;2.70;;;14.70;99.90;;;;;;5025614;28;20556;-81
2023/05/29 00:52:42;;;;;;;6.10;2.60;;;14.60;12.10;;;;;;5024262;28;20777;-82
2023/05/29 00:55:10;;;;;;;5.43;2.60;;;14.50;99.90;;;;;;5024891;28;20456;-80
2023/05/29 00:57:38;;;;;;;7.00;2.40;;;14.40;1.00;;;;;;5024230;28;20535;-81
2023/05/29 01:00:08;;;;;;;7.70;2.80;;;14.40;1.40;;;;;;5024007;28;20548;-82
2023/05/29 01:02:38;;;;;;;9.13;2.53;;;14.30;1.00;;;;;;5022770;28;20507;-82
2023/05/29 01:05:06;;;;;;;7.77;3.67;;;14.30;1.00;;;;;;5022907;28;20434;-80
2023/05/29 01:07:33;;;;;;;5.77;2.60;;;14.20;99.90;;;;;;5022810;28;20461;-79
2023/05/29 01:10:00;;;;;;;6.30;2.70;;;14.10;99.90;;;;;;5020566;28;20480;-80
2023/05/29 01:12:37;;;;;;;5.30;2.70;;;14.10;99.90;;;;;;5020350;28;20950;-79
2023/05/29 01:15:25;;;;;;;12.37;3.30;;;14.00;1.00;;;;;;5020622;28;20455;-81
2023/05/29 01:18:20;;;;;;;5.90;2.33;;;14.00;1.00;;;;;;5020994;28;20516;-80
2023/05/29 01:20:52;;;;;;;4.30;2.30;;;14.00;1.00;;;;;;5021100;28;20492;-79
2023/05/29 01:23:41;;;;;;;5.13;2.30;;;13.90;99.90;;;;;;5021851;28;20569;-80
2023/05/29 01:26:17;;;;;;;8.43;2.37;;;13.80;99.90;;;;;;5022265;28;20464;-80
2023/05/29 01:28:48;;;;;;;10.50;2.90;;;13.80;99.90;;;;;;5021235;28;20445;-79
2023/05/29 01:31:18;;;;;;;8.53;2.70;;;13.60;99.90;;;;;;5021675;28;20628;-80
2023/05/29 01:33:53;;;;;;;7.87;2.50;;;13.50;99.90;;;;;;5019560;28;20457;-80
2023/05/29 01:36:20;;;;;;;7.77;2.20;;;13.50;1.00;;;;;;5020297;28;20459;-79
2023/05/29 01:38:46;;;;;;;6.23;2.97;;;13.50;1.00;;;;;;5020431;28;20460;-79
2023/05/29 01:41:15;;;;;;;9.87;3.10;;;13.40;1.00;;;;;;5019710;28;21015;-79
2023/05/29 01:43:42;;;;;;;8.07;3.07;;;13.40;99.90;;;;;;5019416;28;20493;-80
2023/05/29 01:46:11;;;;;;;12.37;4.40;;;13.30;99.90;;;;;;5020521;28;20459;-80
2023/05/29 01:48:37;;;;;;;9.03;3.00;;;13.40;99.90;;;;;;5020916;28;20463;-79
2023/05/29 01:51:05;;;;;;;7.43;2.43;;;13.40;1.00;;;;;;5019221;28;20480;-79
2023/05/29 01:53:32;;;;;;;18.87;3.77;;;13.30;1.00;;;;;;5018409;28;20544;-79
2023/05/29 01:55:59;;;;;;;7.43;2.17;;;13.30;1.00;;;;;;5019550;28;20471;-79
2023/05/29 01:58:27;;;;;;;8.10;2.57;;;13.20;99.90;;;;;;5020324;28;20459;-80
2023/05/29 02:00:54;;;;;;;12.00;2.67;;;13.10;99.90;;;;;;5019669;28;20479;-81
2023/05/29 02:03:23;;;;;;;7.83;2.80;;;13.10;1.00;;;;;;5018387;28;20493;-78
2023/05/29 02:05:50;;;;;;;11.17;3.90;;;13.10;1.00;;;;;;5017153;28;20502;-79
2023/05/29 02:08:17;;;;;;;6.43;2.40;;;13.10;60.80;;;;;;5018309;28;20454;-79
2023/05/29 02:10:44;;;;;;;7.80;2.43;;;13.00;99.90;;;;;;5018181;28;20476;-79
2023/05/29 02:13:10;;;;;;;7.40;2.47;;;13.00;37.70;;;;;;5016683;28;20461;-81
2023/05/29 02:15:37;;;;;;;7.83;2.70;;;13.00;99.90;;;;;;5018392;28;20450;-78
2023/05/29 02:18:04;;;;;;;7.20;2.33;;;12.90;1.00;;;;;;5017578;28;20464;-80
2023/05/29 02:20:32;;;;;;;14.97;3.30;;;12.90;1.00;;;;;;5018715;28;20490;-79
2023/05/29 02:22:59;;;;;;;10.23;2.60;;;12.90;1.00;;;;;;5017706;28;20475;-81
2023/05/29 02:25:25;;;;;;;7.77;2.67;;;12.90;1.00;;;;;;5017057;28;20454;-77
2023/05/29 02:27:52;;;;;;;7.17;2.37;;;12.90;1.00;;;;;;5017712;28;20472;-79
2023/05/29 02:30:19;;;;;;;8.80;2.90;;;12.90;28.00;;;;;;5016982;28;20477;-80
2023/05/29 02:32:46;;;;;;;9.83;2.53;;;12.80;1.00;;;;;;5016491;28;20453;-80
2023/05/29 02:35:14;;;;;;;8.43;2.10;;;12.80;99.90;;;;;;5016966;28;20453;-79
2023/05/29 02:37:43;;;;;;;7.50;2.20;;;12.80;99.90;;;;;;5017885;28;20464;-80
2023/05/29 02:40:10;;;;;;;6.33;2.33;;;12.80;99.90;;;;;;5015026;28;20492;-80
2023/05/29 02:42:37;;;;;;;10.37;2.90;;;12.80;1.00;;;;;;5016242;28;20460;-81
2023/05/29 02:45:05;;;;;;;8.27;2.30;;;12.70;99.90;;;;;;5023186;28;20488;-79
2023/05/29 02:47:32;;;;;;;11.67;2.80;;;12.70;99.90;;;;;;5026396;28;20454;-79
2023/05/29 02:49:59;;;;;;;9.40;3.23;;;12.60;99.90;;;;;;5025283;28;20561;-79
2023/05/29 02:52:26;;;;;;;10.93;3.53;;;12.70;99.90;;;;;;5020590;28;20446;-82
2023/05/29 02:54:55;;;;;;;6.57;2.07;;;12.60;1.00;;;;;;5006191;28;20459;-79
2023/05/29 02:57:22;;;;;;;12.53;3.20;;;12.60;1.00;;;;;;5015998;28;20844;-80
2023/05/29 02:59:50;;;;;;;12.80;2.77;;;12.60;1.00;;;;;;5016550;28;20481;-81
2023/05/29 03:02:17;;;;;;;13.57;2.90;;;12.60;1.00;;;;;;5017840;28;20452;-81
2023/05/29 03:04:43;;;;;;;6.70;2.17;;;12.50;1.00;;;;;;5016354;28;20480;-79
2023/05/29 03:07:10;;;;;;;11.77;3.33;;;12.50;1.00;;;;;;5018172;28;20439;-83
2023/05/29 03:09:37;;;;;;;11.00;3.30;;;12.60;99.90;;;;;;5017959;28;20907;-81
2023/05/29 03:12:06;;;;;;;8.97;2.50;;;12.60;59.50;;;;;;5017990;28;20453;-81
2023/05/29 03:14:35;;;;;;;9.57;2.70;;;12.50;99.90;;;;;;5015105;28;20447;-82
2023/05/29 03:17:02;;;;;;;12.83;3.10;;;12.50;99.90;;;;;;5018001;28;20457;-80
2023/05/29 03:19:29;;;;;;;10.43;2.87;;;12.50;99.90;;;;;;5016466;28;20469;-81
2023/05/29 03:21:56;;;;;;;10.70;2.83;;;12.50;99.90;;;;;;5016470;28;20954;-80
2023/05/29 03:24:24;;;;;;;12.87;3.20;;;12.50;99.90;;;;;;5014628;28;20521;-79
2023/05/29 03:26:51;;;;;;;8.00;2.10;;;12.50;99.90;;;;;;5014220;28;20457;-79
2023/05/29 03:29:19;;;;;;;10.03;2.43;;;12.40;1.00;;;;;;5014506;28;20821;-79
2023/05/29 03:31:46;;;;;;;7.13;2.33;;;12.30;1.00;;;;;;5014810;28;20476;-79
2023/05/29 03:34:13;;;;;;;8.17;2.23;;;12.40;1.00;;;;;;5013349;28;20965;-78
2023/05/29 03:36:40;;;;;;;7.07;2.73;;;12.30;1.00;;;;;;5013970;28;20846;-79
2023/05/29 03:39:07;;;;;;;7.57;3.50;;;12.40;1.00;;;;;;5014860;28;20451;-80
2023/05/29 03:41:34;;;;;;;10.80;2.53;;;12.30;1.00;;;;;;5014776;28;20478;-80
2023/05/29 03:44:00;;;;;;;13.63;2.70;;;12.30;1.00;;;;;;5014420;28;20842;-79
2023/05/29 03:46:29;;;;;;;7.83;2.10;;;12.30;1.00;;;;;;5014615;28;20454;-79
2023/05/29 03:48:55;;;;;;;8.53;2.93;;;12.30;1.00;;;;;;5014923;28;20453;-78
2023/05/29 03:51:22;;;;;;;8.77;2.47;;;12.20;17.90;;;;;;5014847;28;20473;-79
2023/05/29 03:53:49;;;;;;;10.67;3.47;;;12.30;19.40;;;;;;5013674;28;20968;-79
2023/05/29 03:56:16;;;;;;;10.63;2.80;;;12.30;1.00;;;;;;5014582;28;20463;-78
2023/05/29 03:58:43;;;;;;;7.63;2.50;;;12.30;1.00;;;;;;5014913;28;20453;-80
2023/05/29 04:01:10;;;;;;;9.10;3.40;;;12.20;1.00;;;;;;5014187;28;20566;-78
2023/05/29 04:03:46;;;;;;;10.40;2.30;;;12.20;1.00;;;;;;5009424;28;21288;-80
2023/05/29 04:06:12;;;;;;;11.40;2.97;;;12.20;1.00;;;;;;5009027;28;20521;-80
2023/05/29 04:08:39;;;;;;;11.93;2.83;;;12.20;54.20;;;;;;5011721;28;20457;-79
2023/05/29 04:11:06;;;;;;;8.43;2.80;;;12.20;76.40;;;;;;5015371;28;20473;-79
2023/05/29 04:13:36;;;;;;;8.27;2.47;;;12.20;99.90;;;;;;5011994;28;20541;-82
2023/05/29 04:16:02;;;;;;;11.37;2.40;;;12.20;95.30;;;;;;5010389;28;20453;-80
2023/05/29 04:18:29;;;;;;;13.40;2.90;;;12.20;99.90;;;;;;5007707;28;20453;-80
2023/05/29 04:20:57;;;;;;;7.77;2.50;;;12.20;94.10;;;;;;5012008;28;20572;-79
2023/05/29 04:23:24;;;;;;;9.47;2.50;;;12.20;99.90;;;;;;5011036;28;20450;-80
2023/05/29 04:25:52;;;;;;;11.03;3.57;;;12.20;99.90;;;;;;5015046;28;20474;-80
2023/05/29 04:28:21;;;;;;;8.40;3.23;;;12.10;99.90;;;;;;5021280;28;20450;-80
2023/05/29 04:30:48;;;;;;;14.53;3.10;;;12.20;99.90;;;;;;5020957;28;21077;-81
2023/05/29 04:33:15;;;;;;;15.13;3.27;;;12.20;99.90;;;;;;5026581;28;20454;-80
2023/05/29 04:35:42;;;;;;;9.37;3.20;;;12.30;99.90;;;;;;5020494;28;20481;-79
2023/05/29 04:38:11;;;;;;;9.13;2.57;;;12.30;99.90;;;;;;5021614;28;20534;-80
2023/05/29 04:40:40;;;;;;;13.00;3.37;;;12.40;99.90;;;;;;5054030;22;20631;-81
2023/05/29 04:43:10;;;;;;;14.87;3.13;;;12.40;99.90;;;;;;5044973;28;20550;-81
2023/05/29 04:45:37;;;;;;;9.50;2.67;;;12.40;1.00;;;;;;5048611;28;20532;-80
2023/05/29 04:48:04;;;;;;;8.67;3.60;;;12.50;99.90;;;;;;5051069;28;20455;-81
2023/05/29 04:50:32;;;;;;;10.63;2.80;;;12.50;1.00;;;;;;5045960;28;20480;-81
2023/05/29 04:52:59;;;;;;;11.40;3.17;;;12.50;1.00;;;;;;5040221;28;20463;-81
2023/05/29 04:55:27;;;;;;;13.10;3.30;;;12.50;1.00;;;;;;5023937;28;20443;-79
2023/05/29 04:57:54;;;;;;;7.37;2.30;;;12.50;1.00;;;;;;5018985;28;20522;-81
2023/05/29 05:00:21;;;;;;;13.90;4.43;;;12.60;1.00;;;;;;5023853;28;20496;-80
2023/05/29 05:02:50;;;;;;;11.67;3.00;;;12.60;1.00;;;;;;5029597;28;20453;-81
2023/05/29 05:05:20;;;;;;;9.10;3.27;;;12.60;1.00;;;;;;5018650;28;20485;-81
2023/05/29 05:07:47;;;;;;;11.53;2.77;;;12.70;1.00;;;;;;5025619;28;20459;-81
2023/05/29 05:10:14;;;;;;;7.90;2.57;;;12.70;99.90;;;;;;5037065;28;20457;-81
2023/05/29 05:12:42;;;;;;;9.40;2.73;;;12.70;99.90;;;;;;5030618;28;20580;-80
2023/05/29 05:15:10;;;;;;;15.87;2.77;;;12.70;22.90;;;;;;5017571;28;20463;-81
2023/05/29 05:17:37;;;;;;;10.47;2.50;;;12.70;99.90;;;;;;5022746;28;20460;-80
2023/05/29 05:20:05;;;;;;;11.73;3.47;;;12.70;99.90;;;;;;5038208;28;20494;-82
2023/05/29 05:22:32;;;;;;;13.37;2.57;;;12.70;1.00;;;;;;5034192;28;20838;-81
2023/05/29 05:25:00;;;;;;;9.83;2.63;;;12.80;99.90;;;;;;5020541;28;20493;-81
2023/05/29 05:27:27;;;;;;;12.93;3.40;;;12.80;99.90;;;;;;5031173;28;20466;-81
2023/05/29 05:29:55;;;;;;;9.17;2.60;;;12.80;99.90;;;;;;5039995;28;20538;-79
2023/05/29 05:32:21;;;;;;;10.10;3.37;;;12.90;99.90;;;;;;5041017;28;21154;-78
2023/05/29 05:34:48;;;;;;;10.20;2.70;;;13.00;1.00;;;;;;5043070;28;20531;-79
2023/05/29 05:37:15;;;;;;;6.50;2.40;;;13.00;1.00;;;;;;5039286;28;20520;-81
2023/05/29 05:39:42;;;;;;;8.90;2.50;;;13.00;99.90;;;;;;5043687;28;20530;-81
2023/05/29 05:42:09;;;;;;;11.50;2.50;;;13.10;1.00;;;;;;5040879;28;20515;-80
2023/05/29 05:44:36;;;;;;;10.63;2.43;;;13.10;1.00;;;;;;5041301;28;20511;-82
2023/05/29 05:47:04;;;;;;;12.97;3.40;;;13.00;99.90;;;;;;5036064;28;20458;-80
2023/05/29 05:49:31;;;;;;;12.03;2.43;;;13.10;1.00;;;;;;5022343;28;20453;-79
2023/05/29 05:51:59;;;;;;;5.80;1.90;;;13.20;99.90;;;;;;5029766;28;20483;-79
2023/05/29 05:54:26;;;;;;;11.53;2.70;;;13.20;9.70;;;;;;5045235;28;20459;-81
2023/05/29 05:56:53;;;;;;;5.60;2.30;;;13.30;3.10;;;;;;5031863;28;20521;-81
2023/05/29 05:59:19;;;;;;;10.17;2.80;;;13.30;1.00;;;;;;5022365;28;20540;-80
2023/05/29 06:01:46;;;;;;;9.50;2.80;;;13.50;1.00;;;;;;5028298;28;20571;-82
2023/05/29 06:04:16;;;;;;;11.50;2.80;;;13.40;1.00;;;;;;5021310;28;20480;-82
2023/05/29 06:06:43;;;;;;;9.27;2.70;;;13.50;99.90;;;;;;5022440;28;21116;-81
2023/05/29 06:09:10;;;;;;;9.00;2.60;;;13.60;99.90;;;;;;5023610;28;20464;-81
2023/05/29 06:11:38;;;;;;;11.10;3.00;;;13.70;1.00;;;;;;5023792;28;20535;-81
2023/05/29 06:14:05;;;;;;;10.50;2.67;;;13.80;99.90;;;;;;5028536;28;20451;-80
2023/05/29 06:16:32;;;;;;;9.10;3.00;;;13.90;1.00;;;;;;5052467;28;20508;-81
2023/05/29 06:18:58;;;;;;;10.37;2.97;;;13.90;99.90;;;;;;5052206;28;20446;-81
2023/05/29 06:21:27;;;;;;;13.33;2.83;;;14.00;55.10;;;;;;5053002;28;20583;-79
2023/05/29 06:23:53;;;;;;;8.47;2.00;;;14.00;99.90;;;;;;5051743;28;20449;-80
2023/05/29 06:26:21;;;;;;;12.07;3.10;;;14.10;59.50;;;;;;5045935;28;20459;-81
2023/05/29 06:28:48;;;;;;;12.80;3.27;;;14.00;99.90;;;;;;5046568;28;20482;-81
2023/05/29 06:31:15;;;;;;;10.23;2.77;;;14.00;1.00;;;;;;5045224;28;20511;-82
2023/05/29 06:33:42;;;;;;;10.77;3.80;;;14.20;1.00;;;;;;5042659;28;20623;-81
2023/05/29 06:36:09;;;;;;;15.13;3.20;;;14.20;1.00;;;;;;5043608;28;20954;-81
2023/05/29 06:38:37;;;;;;;11.27;2.87;;;14.30;99.90;;;;;;5044885;28;20529;-81
2023/05/29 06:41:04;;;;;;;10.63;3.43;;;14.30;1.00;;;;;;5037648;28;20484;-80
2023/05/29 06:43:31;;;;;;;8.97;2.67;;;14.50;99.90;;;;;;5024005;28;20484;-81
2023/05/29 06:45:58;;;;;;;7.00;2.73;;;14.50;99.90;;;;;;5055552;28;20479;-82
2023/05/29 06:48:25;;;;;;;13.73;3.00;;;14.60;99.90;;;;;;5061985;28;20466;-81
2023/05/29 06:50:52;;;;;;;13.00;3.27;;;14.60;99.90;;;;;;5021950;28;21213;-81
2023/05/29 06:53:18;;;;;;;9.93;3.57;;;14.70;99.90;;;;;;5021340;28;20482;-81
2023/05/29 06:55:47;;;;;;;7.07;3.20;;;14.80;40.60;;;;;;5038433;28;20465;-80
2023/05/29 06:58:13;;;;;;;8.70;3.33;;;14.80;15.70;;;;;;5041863;28;20474;-82
2023/05/29 07:00:40;;;;;;;9.57;2.53;;;14.80;74.90;;;;;;5042582;28;20500;-82
2023/05/29 07:03:07;;;;;;;12.43;3.30;;;15.00;53.60;;;;;;5041371;28;20539;-81
2023/05/29 07:05:34;;;;;;;11.83;2.83;;;15.00;1.00;;;;;;5052608;28;20477;-80
2023/05/29 07:08:01;;;;;;;12.23;3.30;;;15.00;1.00;;;;;;5044442;28;20475;-80
2023/05/29 07:10:28;;;;;;;10.57;2.70;;;15.00;1.00;;;;;;5040928;28;20476;-81
2023/05/29 07:12:56;;;;;;;8.73;2.70;;;15.00;1.00;;;;;;5040707;28;20517;-82
2023/05/29 07:15:23;;;;;;;9.00;2.67;;;15.10;1.00;;;;;;5041752;28;20552;-82
2023/05/29 07:17:49;;;;;;;6.33;2.37;;;15.30;81.00;;;;;;5042350;28;20471;-82
2023/05/29 07:20:18;;;;;;;6.83;3.30;;;15.40;1.00;;;;;;5040288;28;20508;-82
2023/05/29 07:22:45;;;;;;;10.83;2.43;;;15.40;1.00;;;;;;5039641;28;20523;-81
2023/05/29 07:25:12;;;;;;;12.53;3.07;;;15.50;99.90;;;;;;5040337;28;21177;-81
2023/05/29 07:27:39;;;;;;;9.97;2.87;;;15.50;99.90;;;;;;5040587;28;20540;-81
2023/05/29 07:30:08;;;;;;;11.90;3.03;;;15.70;99.90;;;;;;5041270;28;20473;-81
2023/05/29 07:32:35;;;;;;;6.53;2.27;;;15.80;99.90;;;;;;5040614;28;20460;-80
2023/05/29 07:35:02;;;;;;;9.90;2.83;;;15.90;1.00;;;;;;5041320;28;20484;-82
2023/05/29 07:37:30;;;;;;;9.93;3.63;;;16.00;99.90;;;;;;5040513;28;20476;-81
2023/05/29 07:39:57;;;;;;;9.00;3.10;;;16.10;99.90;;;;;;5040439;28;20823;-82
2023/05/29 07:42:24;;;;;;;10.00;2.70;;;16.20;99.90;;;;;;5039594;28;20504;-82
2023/05/29 07:44:50;;;;;;;13.70;3.10;;;16.20;99.90;;;;;;5040129;28;20560;-82
2023/05/29 07:47:19;;;;;;;6.83;2.40;;;16.30;99.90;;;;;;5040122;28;20536;-82
2023/05/29 07:49:45;;;;;;;8.57;2.10;;;16.20;99.90;;;;;;5040510;28;20452;-82
2023/05/29 07:52:12;;;;;;;11.43;2.80;;;16.40;99.90;;;;;;5041278;28;20957;-83
2023/05/29 07:54:39;;;;;;;10.47;3.17;;;16.60;99.90;;;;;;5039660;28;20561;-82
2023/05/29 07:57:09;;;;;;;14.00;3.20;;;16.70;99.90;;;;;;5039932;28;20449;-82
2023/05/29 07:59:40;;;;;;;7.47;2.90;;;16.80;99.90;;;;;;5040642;28;20479;-81
2023/05/29 08:02:07;;;;;;;9.70;3.00;;;16.90;99.90;;;;;;5040356;28;20536;-83
2023/05/29 08:04:35;;;;;;;8.87;2.63;;;17.00;38.90;;;;;;5039250;28;20451;-83
2023/05/29 08:07:03;;;;;;;10.77;3.10;;;17.10;41.70;;;;;;5039946;28;20450;-82
2023/05/29 08:09:30;;;;;;;6.87;2.87;;;17.20;30.60;;;;;;5040814;28;20441;-82
2023/05/29 08:11:57;;;;;;;6.60;2.20;;;17.30;1.00;;;;;;5039980;28;20461;-82
2023/05/29 08:14:23;;;;;;;13.03;2.50;;;17.30;1.00;;;;;;5039637;28;20456;-81
2023/05/29 08:16:50;;;;;;;10.60;3.30;;;17.50;1.00;;;;;;5040040;28;20446;-81
2023/05/29 08:19:19;;;;;;;10.00;2.90;;;17.50;1.00;;;;;;5040101;28;20457;-82
2023/05/29 08:21:47;;;;;;;9.60;2.70;;;17.50;1.00;;;;;;5040034;28;20473;-82
2023/05/29 08:24:14;;;;;;;4.57;2.80;;;17.50;1.00;;;;;;5040188;28;20464;-80
2023/05/29 08:26:41;;;;;;;14.43;3.03;;;17.80;1.00;;;;;;5040144;28;20571;-83
2023/05/29 08:29:08;;;;;;;7.60;2.43;;;18.00;1.00;;;;;;5041340;28;20479;-82
2023/05/29 08:31:34;;;;;;;8.97;2.57;;;18.20;1.00;;;;;;5040391;28;20552;-82
2023/05/29 08:34:01;;;;;;;7.70;2.30;;;18.30;1.00;;;;;;5039734;28;20480;-83
2023/05/29 08:36:28;;;;;;;9.70;2.40;;;18.50;1.00;;;;;;5040055;28;20447;-82
2023/05/29 08:38:56;;;;;;;10.87;2.53;;;18.50;1.00;;;;;;5040043;28;20485;-81
2023/05/29 08:41:29;;;;;;;6.60;2.30;;;18.80;1.00;;;;;;5039135;28;20543;-82
2023/05/29 08:43:57;;;;;;;9.33;2.70;;;19.00;1.00;;;;;;5038972;28;20471;-82
2023/05/29 08:46:25;;;;;;;6.93;2.73;;;19.30;1.00;;;;;;5039939;28;20518;-82
2023/05/29 08:48:54;;;;;;;7.30;2.70;;;19.50;1.00;;;;;;5039793;28;20527;-81
2023/05/29 08:51:22;;;;;;;7.60;2.57;;;19.70;1.00;;;;;;5040472;28;20475;-81
2023/05/29 08:53:49;;;;;;;9.43;2.80;;;19.90;1.00;;;;;;5039932;28;20815;-81
2023/05/29 08:56:17;;;;;;;8.93;2.87;;;20.00;1.00;;;;;;5038896;28;20449;-81
2023/05/29 08:58:47;;;;;;;9.80;3.17;;;20.10;1.00;;;;;;5039772;28;20445;-82
2023/05/29 09:01:15;;;;;;;11.27;3.00;;;20.00;1.00;;;;;;5039292;28;20465;-81
2023/05/29 09:03:42;;;;;;;11.73;2.77;;;20.00;1.00;;;;;;5038143;28;20836;-82
2023/05/29 09:06:09;;;;;;;6.93;2.13;;;20.00;1.00;;;;;;5042743;28;20491;-81
2023/05/29 09:08:37;;;;;;;9.63;3.37;;;20.10;1.00;;;;;;5043994;28;20547;-82
2023/05/29 09:11:04;;;;;;;8.57;2.50;;;20.30;1.00;;;;;;5043993;28;20540;-82
2023/05/29 09:13:32;;;;;;;6.17;2.50;;;20.40;99.90;;;;;;5043615;28;20919;-81
2023/05/29 09:15:59;;;;;;;9.40;2.80;;;20.40;99.90;;;;;;5049400;28;20515;-82
2023/05/29 09:18:30;;;;;;;9.77;2.60;;;20.50;99.90;;;;;;5055276;28;20540;-79
2023/05/29 09:20:58;;;;;;;7.23;2.60;;;20.60;99.90;;;;;;5043800;28;20487;-81
2023/05/29 09:23:27;;;;;;;8.57;2.67;;;20.60;99.90;;;;;;5043127;28;20456;-80
2023/05/29 09:25:54;;;;;;;11.80;3.30;;;20.70;99.90;;;;;;5043941;28;20507;-82
2023/05/29 09:28:23;;;;;;;12.37;3.47;;;20.90;99.90;;;;;;5043537;28;20467;-82
2023/05/29 09:30:51;;;;;;;11.00;2.80;;;21.10;99.90;;;;;;5043236;28;20477;-82
2023/05/29 09:33:18;;;;;;;8.23;2.47;;;21.20;99.90;;;;;;5041401;28;20459;-81
2023/05/29 09:35:47;;;;;;;6.37;2.70;;;21.30;99.90;;;;;;5042255;28;20452;-82
2023/05/29 09:38:15;;;;;;;9.77;2.60;;;21.20;99.90;;;;;;5043109;28;20499;-81
2023/05/29 09:40:45;;;;;;;10.67;3.77;;;21.40;99.90;;;;;;5041823;28;20930;-81
2023/05/29 09:43:13;;;;;;;11.50;3.10;;;21.40;99.90;;;;;;5041712;28;20492;-81
2023/05/29 09:45:41;;;;;;;13.97;4.10;;;21.50;99.90;;;;;;5042838;28;20575;-82
2023/05/29 09:48:14;;;;;;;7.17;2.30;;;21.70;99.90;;;;;;5042559;28;20452;-82
2023/05/29 09:50:44;;;;;;;7.63;2.63;;;21.80;99.90;;;;;;5046507;28;20501;-81
2023/05/29 09:53:21;;;;;;;12.17;2.97;;;21.80;99.90;;;;;;5040924;28;20828;-80
2023/05/29 09:55:50;;;;;;;7.30;2.37;;;22.00;99.90;;;;;;5041125;28;20524;-80
2023/05/29 09:58:18;;;;;;;6.60;3.23;;;22.30;99.90;;;;;;5041018;28;20476;-80
2023/05/29 10:00:45;;;;;;;11.07;2.80;;;22.40;99.90;;;;;;5041470;28;20467;-81
2023/05/29 10:03:14;;;;;;;9.47;3.13;;;22.40;99.90;;;;;;5040676;28;20468;-79
2023/05/29 10:05:40;;;;;;;7.27;3.10;;;22.50;99.90;;;;;;5041344;28;20480;-81
2023/05/29 10:08:11;;;;;;;11.93;3.03;;;22.60;99.90;;;;;;5040927;28;20449;-80
2023/05/29 10:10:41;;;;;;;7.73;2.50;;;22.90;99.90;;;;;;5040928;28;20507;-79
2023/05/29 10:13:13;;;;;;;8.73;2.30;;;23.10;99.90;;;;;;5041142;28;20488;-80
2023/05/29 10:15:42;;;;;;;5.97;2.30;;;23.20;99.90;;;;;;5040684;28;20956;-78
2023/05/29 10:18:21;;;;;;;5.97;2.30;;;23.20;99.90;;;;;;5040502;28;20460;-80
2023/05/29 10:20:51;;;;;;;10.30;2.87;;;23.30;99.90;;;;;;5041133;28;20498;-81
2023/05/29 10:23:20;;;;;;;8.20;2.80;;;23.60;99.90;;;;;;5040124;28;20872;-81
2023/05/29 10:25:50;;;;;;;6.67;2.13;;;23.60;99.90;;;;;;5041359;28;20575;-80
2023/05/29 10:28:20;;;;;;;6.93;2.13;;;23.80;99.90;;;;;;5041742;28;20447;-80
2023/05/29 10:30:54;;;;;;;7.87;2.40;;;23.90;99.90;;;;;;5040999;28;20473;-80
2023/05/29 10:33:42;;;;;;;8.27;2.97;;;24.00;99.90;;;;;;5040330;28;20457;-80
2023/05/29 10:36:14;;;;;;;7.53;3.00;;;24.10;99.90;;;;;;5041019;28;20425;-81
2023/05/29 10:38:45;;;;;;;7.67;2.50;;;24.30;99.90;;;;;;5041731;28;20441;-80
2023/05/29 10:41:30;;;;;;;11.20;2.97;;;24.60;99.90;;;;;;5069497;22;20559;-83
2023/05/29 10:43:58;;;;;;;7.70;2.87;;;25.00;99.90;;;;;;5058289;28;20541;-82
2023/05/29 10:47:05;;;;;;;7.90;2.90;;;25.20;99.90;;;;;;5060988;28;20566;-83
2023/05/29 10:49:34;;;;;;;5.70;2.40;;;25.30;99.90;;;;;;5061499;28;20452;-84
2023/05/29 10:52:01;;;;;;;9.80;2.90;;;25.60;99.90;;;;;;5060621;28;20475;-84
2023/05/29 10:54:28;;;;;;;8.53;2.47;;;25.50;99.90;;;;;;5061080;28;20555;-82
2023/05/29 10:56:57;;;;;;;10.10;3.10;;;25.50;99.90;;;;;;5060074;28;20475;-82
2023/05/29 10:59:27;;;;;;;9.60;2.63;;;25.60;99.90;;;;;;5062573;28;20462;-81
2023/05/29 11:01:54;;;;;;;8.30;2.50;;;25.80;99.90;;;;;;5061796;28;20463;-81
2023/05/29 11:04:30;;;;;;;7.00;2.80;;;25.90;99.90;;;;;;5058860;28;20459;-82
2023/05/29 11:06:58;;;;;;;6.60;2.50;;;26.30;99.90;;;;;;5059525;28;20486;-81
2023/05/29 11:09:30;;;;;;;9.63;2.90;;;26.50;99.90;;;;;;5061397;28;20455;-83
2023/05/29 11:12:12;;;;;;;9.43;3.00;;;26.50;99.90;;;;;;5059311;28;20570;-81
2023/05/29 11:14:46;;;;;;;10.57;3.63;;;26.80;99.90;;;;;;5059326;28;20440;-81
2023/05/29 11:17:44;;;;;;;10.50;2.43;;;27.10;99.90;;;;;;5063038;28;20821;-83
2023/05/29 11:20:19;;;;;;;5.67;2.17;;;27.20;99.90;;;;;;5063814;28;20452;-82
2023/05/29 11:23:02;;;;;;;5.97;2.57;;;27.40;99.90;;;;;;5063299;28;20478;-83
2023/05/29 11:25:34;;;;;;;8.37;3.00;;;27.50;99.90;;;;;;5063993;28;20471;-81
2023/05/29 11:28:00;;;;;;;6.93;2.30;;;27.70;99.90;;;;;;5063443;28;20535;-82
2023/05/29 11:30:27;;;;;;;10.00;3.07;;;27.70;99.90;;;;;;5061760;28;20448;-83
2023/05/29 11:32:56;;;;;;;8.93;3.00;;;27.70;99.90;;;;;;5073552;28;20483;-84
2023/05/29 11:35:23;;;;;;;5.53;1.90;;;27.70;99.90;;;;;;5074684;28;20440;-84
2023/05/29 11:37:51;;;;;;;6.33;2.60;;;27.70;99.90;;;;;;5072133;28;20448;-83
2023/05/29 11:40:19;;;;;;;8.73;2.67;;;27.60;99.90;;;;;;5064489;28;20555;-83
2023/05/29 11:42:48;;;;;;;5.37;3.40;;;27.70;99.90;;;;;;5063696;28;20579;-83
2023/05/29 11:45:18;;;;;;;6.57;2.70;;;28.00;99.90;;;;;;5065054;28;20456;-84
2023/05/29 11:47:53;;;;;;;7.70;2.70;;;28.50;99.90;;;;;;5062336;28;20472;-83
2023/05/29 11:50:20;;;;;;;9.07;2.60;;;28.80;99.90;;;;;;5062472;28;20440;-83
2023/05/29 11:52:47;;;;;;;6.37;2.27;;;29.20;99.90;;;;;;5060966;28;20452;-82
2023/05/29 11:55:16;;;;;;;7.40;3.40;;;29.50;99.90;;;;;;5060526;28;20535;-81
2023/05/29 11:57:42;;;;;;;8.17;2.57;;;29.70;99.90;;;;;;5062230;28;20456;-82
2023/05/29 12:00:14;;;;;;;7.27;2.97;;;29.70;99.90;;;;;;5064293;28;20547;-81
2023/05/29 12:02:42;;;;;;;7.73;2.53;;;29.80;99.90;;;;;;5059592;28;20475;-84
2023/05/29 12:05:13;;;;;;;5.13;2.23;;;29.40;99.90;;;;;;5060047;28;20448;-83
2023/05/29 12:07:47;;;;;;;6.23;2.60;;;29.90;99.90;;;;;;5059138;28;20520;-83
2023/05/29 12:10:17;;;;;;;8.33;2.30;;;29.90;99.90;;;;;;5059281;28;20446;-83
2023/05/29 12:12:48;;;;;;;5.93;2.43;;;30.00;99.90;;;;;;5057737;28;20920;-81
2023/05/29 12:15:15;;;;;;;5.63;2.00;;;30.50;99.90;;;;;;5058030;28;20447;-82
2023/05/29 12:17:43;;;;;;;7.63;2.50;;;30.90;99.90;;;;;;5058505;28;20455;-84
2023/05/29 12:20:12;;;;;;;5.63;2.60;;;31.10;99.90;;;;;;5058986;28;20464;-82
2023/05/29 12:22:41;;;;;;;8.33;2.20;;;31.30;99.90;;;;;;5057852;28;20498;-81
2023/05/29 12:25:10;;;;;;;7.33;2.80;;;31.60;99.90;;;;;;5058279;28;20459;-82
2023/05/29 12:27:42;;;;;;;5.83;2.00;;;31.90;99.90;;;;;;5058158;28;21064;-83
2023/05/29 12:30:10;;;;;;;5.13;2.00;;;32.40;99.90;;;;;;5058483;28;20482;-83
2023/05/29 12:32:38;;;;;;;6.60;2.33;;;32.80;99.90;;;;;;5056948;28;20475;-82
2023/05/29 12:35:13;;;;;;;6.60;2.80;;;33.00;99.90;;;;;;5059051;28;20482;-81
2023/05/29 12:37:44;;;;;;;8.30;2.20;;;33.00;99.90;;;;;;5058318;28;20541;-82
2023/05/29 12:40:19;;;;;;;6.53;2.60;;;32.80;99.90;;;;;;5060101;28;20548;-83
2023/05/29 12:42:48;;;;;;;4.97;2.00;;;32.50;99.90;;;;;;5060752;28;20487;-84
2023/05/29 12:45:16;;;;;;;6.27;2.70;;;32.70;99.90;;;;;;5061225;28;20451;-82
2023/05/29 12:47:47;;;;;;;6.40;2.60;;;32.90;99.90;;;;;;5061210;28;20842;-84
2023/05/29 12:50:21;;;;;;;5.70;2.10;;;33.40;99.90;;;;;;5061489;28;20514;-82
2023/05/29 12:52:57;;;;;;;7.00;3.03;;;33.80;99.90;;;;;;5060400;28;20479;-82
2023/05/29 12:55:24;;;;;;;5.30;2.40;;;33.80;99.90;;;;;;5060706;28;20436;-84